Kimball, NE

7:55 PM MDT on July 28, 2015 (GMT -0600)
Kimball Municipal-Arraj | | Change Station
CLOSE
Current Station
Airport
Location: Kimball,
Elevation: 4925 ft
Nearby Weather Stations

Elev 4925 ft 41.19 °N, 103.68 °W | Updated 20 minutes ago

Scattered Clouds
Scattered Clouds
68 °F
Feels Like 68 °F
N
6
Wind Variable Wind from ENE

Today
High -- | Low -- °F
--% Chance of Precip.
Yesterday
High -- | Low -- °F
Precip. -- in
5:46 AM 8:15 PM
Waxing Gibbous, 93% visible
Pressure 30.19 in
Visibility 10.0 miles
Clouds Scattered Clouds 12000 ft
Dew Point 40 °F
Humidity 36%
Rainfall 0.00 in
Snow Depth Not available.
UV 0 out of 12
Pollen 6.70 out of 12
Air Quality Not available.
Flu Activity Not available.
METAR KIBM 290135Z AUTO 07005KT 10SM SCT120 20/04 A3019 RMK AO2 T01970043

More Conditions Fewer Conditions

Pressure 30.19 in
Visibility 10.0 miles
Clouds Scattered Clouds 12000 ft
Dew Point 40 °F
Humidity 36%
Rainfall 0.00 in
Snow Depth Not available.
UV 0 out of 12
Pollen 6.70 out of 12
Air Quality Not available.
Flu Activity Not available.
METAR KIBM 290135Z AUTO 07005KT 10SM SCT120 20/04 A3019 RMK AO2 T01970043

More Conditions Fewer Conditions

10-Day Weather Forecast

×

Almanac

Astronomy

Jul. 28, 2015 Rise Set
Actual Time
Civil Twilight
Nautical Twilight
Astronomical Twilight
Moon
Length of Visible Light
Length of Day
Tomorrow will be .
, % of the Moon is Illuminated

Today's Extremes

State Highs State Lows

Community

WunderPhotos

Upload Photos

1,842,002 photos uploaded!

WunderBlogs® & News

Nearby

Air Quality

  Air Quality AQ Index Pollutant
Not available.

Snow Depth

Station Depth Elevation

Earthquake Activity

City Distance Mag. Time & Date
Minimum magnitude displayed is 2.5.

Coastal Water Temperatures

Place Temperature

Stations

Nearby Weather Stations

Station Location Temp. Windchill Dew Point Humidity Wind Precip. Elev Updated Type